• Join FlightAware (Why Join?)
  • Login
  • US Flag 
07:00PM EDT


 

Airport Tracker/Info


-or-


 

Live Flight TrackerFlight Track Log ✈ AWI3992 ✈ 09-Jul-2014 ✈ KALB - KPHL

Flight Track Log - Related Links

Times and Time Zones

All times are in EDT time to prevent confusion due to time zone crossing. See the AWI3992 flight status page for this flight to view local times or setup timezone preferences in your user account.

Time Position Orientation Groundspeed Altitude Reporting Facility
EDT Latitude Longitude Course Direction KTS MPH feet Rate Location/Type
05:45AM 42.7233 -73.8025 201° Southwest 169 194 1,300  Level Boston Center
05:46AM 42.6769 -73.8450 214° Southwest 203 234 3,600 1,920 Climbing Boston Center
05:46AM 42.6761 -73.8564 264° West 194 223 3,800 1,320 Climbing Boston Center
05:47AM 42.6850 -73.9292 279° West 237 273 5,000 1,800 Climbing Boston Center
05:48AM 42.4886 -73.9380 201° Southwest  Level Estimated
05:48AM 42.7022 -74.0303 283° West 237 273 7,500  Level Boston Center
05:49AM 42.4017 -73.9831 201° Southwest  Level Estimated
05:49AM 42.6856 -74.1147 255° West 246 283 9,500  Level Boston Center
05:50AM 42.3148 -74.0281 201° Southwest  Level Estimated
05:50AM 42.6425 -74.1878 231° Southwest 249 287 11,700  Level Boston Center
05:51AM 42.2279 -74.0730 201° Southwest  Level Estimated
05:51AM 42.5939 -74.2694 231° Southwest 280 322 12,800  Level Boston Center
05:52AM 42.5419 -74.3553 231° Southwest 293 337 14,600 1,500 Climbing Boston Center
05:54AM 42.4842 -74.4511 231° Southwest 304 350 16,000 720 Climbing Boston Center
05:55AM 42.4286 -74.5447 231° Southwest 320 368 16,100  Climbing Boston Center
05:56AM 42.3697 -74.6389 230° Southwest 324 373 16,100  Level Boston Center
05:57AM 42.3178 -74.7292 232° Southwest 324 373 16,100  Level Boston Center
05:57AM 42.2603 -74.8225 230° Southwest 324 373 16,100 -60 Level Boston Center
05:59AM 42.2017 -74.9169 230° Southwest 325 374 16,000 -60 Descending Boston Center
06:00AM 42.1325 -74.9933 219° Southwest 324 373 16,000  Level Boston Center
06:01AM 42.0536 -75.0583 211° Southwest 332 382 16,000  Level Boston Center
06:02AM 41.9669 -75.1286 211° Southwest 328 377 16,000  Level Boston Center
06:03AM 41.8914 -75.1911 212° Southwest 328 377 16,000 -300 Level Boston Center
06:04AM 41.8125 -75.2556 211° Southwest 330 380 15,400 -840 Descending Boston Center
06:05AM 41.7347 -75.3189 211° Southwest 329 379 14,400 -1,020 Descending Boston Center
06:06AM 41.6581 -75.3800 211° Southwest 326 375 13,400 -1,020 Descending Boston Center
06:07AM 41.5817 -75.4417 211° Southwest 322 371 12,400 -1,020 Descending Boston Center
06:08AM 41.5083 -75.5000 211° Southwest 313 360 11,400 -720 Descending Boston Center
06:09AM 41.4339 -75.5600 211° Southwest 311 358 11,000 -240 Descending Boston Center
06:10AM 41.3428 -75.6344 212° Southwest 318 366 11,000  Level New York Center
06:11AM 41.2675 -75.6869 208° Southwest 318 366 11,000  Level New York Center
06:12AM 41.1828 -75.6753 174° South 299 344 11,000  Level New York Center
06:13AM 41.0942 -75.6469 166° South 308 354 11,000 -180 Level New York Center
06:14AM 41.0122 -75.6164 164° South 330 380 10,700 -540 Descending New York Center
06:15AM 40.9197 -75.5878 167° South 342 394 10,000 -360 Descending New York Center
06:16AM 40.8250 -75.5564 166° South 334 384 10,000 -60 Level New York Center
06:17AM 40.7347 -75.5253 165° South 334 384 9,900 -60 Descending New York Center
06:18AM 40.6483 -75.4975 166° South 334 384 9,900  Level New York Center
06:19AM 40.5661 -75.4700 166° South 322 371 9,900  Level New York Center
06:20AM 40.4897 -75.4456 166° South 297 342 10,000 -660 Climbing New York Center
06:21AM 40.4161 -75.4106 160° South 285 328 8,700 -1,380 Descending New York Center
06:22AM 40.3511 -75.3681 154° Southeast 285 328 7,300 -1,500 Descending New York Center
06:23AM 40.2800 -75.3253 155° Southeast 291 335 5,800 -1,140 Descending New York Center
06:24AM 40.2022 -75.2875 160° South 291 335 5,100 -900 Descending New York Center
06:25AM 40.1328 -75.2506 158° South 291 335 4,100 -540 Descending New York Center
06:26AM 40.0506 -75.2153 162° South 286 329 4,100 -60 Level New York Center
06:27AM 39.9869 -75.1897 163° South 275 316 4,000  Descending New York Center
06:28AM 39.9275 -75.1669 164° South 229 264 4,100  Climbing New York Center
06:29AM 39.8781 -75.1475 163° South 206 237 4,000 -780 Descending New York Center
06:30AM 39.8183 -75.1250 164° South 206 237 2,600 -960 Descending New York Center
06:31AM 39.7822 -75.1444 202° Southwest 147 169 2,100 -540 Descending New York Center
06:32AM 39.8167 -75.2000 309° West 167 192 1,300 -660 Descending Philadelphia TRACON
06:33AM 39.8500 -75.2167 339° North 141 162 500 -840 Descending Philadelphia TRACON